createdAt,value
2022-08-30T00:02:13.508Z,56.57
2022-08-30T00:04:40.982Z,57.03
2022-08-30T00:07:08.165Z,57.83
2022-08-30T00:09:35.385Z,57.46
2022-08-30T00:12:04.442Z,57.18
2022-08-30T00:14:31.631Z,57.46
2022-08-30T00:16:58.765Z,57.99
2022-08-30T00:19:26.294Z,57.50
2022-08-30T00:21:53.511Z,57.67
2022-08-30T00:24:20.682Z,57.39
2022-08-30T00:26:48.407Z,57.85
2022-08-30T00:29:15.571Z,57.64
2022-08-30T00:31:42.747Z,58.07
2022-08-30T00:34:10.155Z,57.67
2022-08-30T00:36:37.577Z,57.82
2022-08-30T00:39:05.491Z,58.10
2022-08-30T00:41:34.389Z,57.87
2022-08-30T00:44:01.767Z,57.83
2022-08-30T00:46:29.203Z,57.97
2022-08-30T00:48:56.650Z,57.77
2022-08-30T00:51:24.143Z,57.97
2022-08-30T00:53:54.877Z,57.84
2022-08-30T00:56:22.904Z,58.02
2022-08-30T00:58:50.978Z,57.95
2022-08-30T01:01:18.230Z,58.12
2022-08-30T01:03:45.854Z,58.18
2022-08-30T01:06:15.535Z,58.30
2022-08-30T01:08:43.169Z,58.22
2022-08-30T01:11:12.019Z,58.44
2022-08-30T01:13:39.177Z,58.27
2022-08-30T01:16:06.462Z,58.17
2022-08-30T01:18:35.499Z,58.07
2022-08-30T01:21:29.206Z,58.58
2022-08-30T01:23:58.774Z,57.94
2022-08-30T01:26:26.456Z,58.33
2022-08-30T01:28:55.603Z,58.48
2022-08-30T01:31:23.282Z,58.46
2022-08-30T01:33:51.093Z,58.24
2022-08-30T01:36:18.640Z,58.64
2022-08-30T01:38:47.795Z,58.36
2022-08-30T01:41:19.635Z,58.44
2022-08-30T01:43:47.287Z,58.47
2022-08-30T01:46:15.266Z,58.50
2022-08-30T01:48:42.716Z,58.23
2022-08-30T01:51:22.647Z,58.29
2022-08-30T01:53:51.105Z,58.45
2022-08-30T01:56:18.507Z,58.30
2022-08-30T01:58:46.028Z,58.85
2022-08-30T02:01:14.007Z,58.56
2022-08-30T02:03:43.157Z,58.46
2022-08-30T02:06:11.676Z,58.26
2022-08-30T02:08:40.275Z,58.75
2022-08-30T02:11:08.316Z,58.30
2022-08-30T02:13:37.656Z,58.33
2022-08-30T02:16:06.035Z,58.38
2022-08-30T02:18:34.991Z,58.34
2022-08-30T02:21:02.205Z,58.15
2022-08-30T02:23:29.374Z,57.91
2022-08-30T02:25:56.789Z,58.18
2022-08-30T02:28:25.735Z,58.15
2022-08-30T02:30:53.098Z,58.80
2022-08-30T02:33:20.643Z,58.72
2022-08-30T02:35:47.818Z,58.44
2022-08-30T02:38:14.962Z,58.52
2022-08-30T02:40:42.422Z,58.70
2022-08-30T02:43:09.694Z,58.22
2022-08-30T02:45:37.188Z,58.33
2022-08-30T02:48:04.717Z,58.10
2022-08-30T02:50:32.854Z,58.43
2022-08-30T02:53:00.030Z,58.28
2022-08-30T02:55:27.866Z,58.34
2022-08-30T02:57:55.043Z,58.75
2022-08-30T03:00:22.227Z,58.22
2022-08-30T03:02:49.766Z,58.51
2022-08-30T03:05:17.522Z,58.94
2022-08-30T03:07:45.809Z,58.37
2022-08-30T03:10:13.970Z,58.56
2022-08-30T03:12:41.729Z,58.54
2022-08-30T03:15:10.064Z,58.92
2022-08-30T03:17:37.514Z,58.00
2022-08-30T03:20:05.398Z,57.97
2022-08-30T03:22:32.541Z,57.96
2022-08-30T03:25:01.452Z,59.02
2022-08-30T03:27:28.915Z,58.55
2022-08-30T03:29:56.354Z,58.62
2022-08-30T03:32:24.147Z,58.62
2022-08-30T03:34:51.303Z,58.92
2022-08-30T03:37:18.487Z,58.75
2022-08-30T03:39:46.222Z,59.20
2022-08-30T03:42:13.433Z,58.89
2022-08-30T03:44:40.672Z,58.77
2022-08-30T03:47:08.924Z,59.07
2022-08-30T03:49:36.198Z,58.49
2022-08-30T03:52:03.864Z,59.08
2022-08-30T03:54:31.324Z,58.69
2022-08-30T03:56:58.645Z,58.57
2022-08-30T03:59:25.810Z,59.28
2022-08-30T04:01:53.316Z,58.24
2022-08-30T04:04:21.280Z,58.42
2022-08-30T04:06:48.935Z,58.23
2022-08-30T04:09:16.283Z,58.08
2022-08-30T04:11:43.734Z,58.39
2022-08-30T04:14:10.889Z,58.25
2022-08-30T04:16:38.125Z,58.44
2022-08-30T04:19:05.583Z,58.54
2022-08-30T04:21:32.800Z,58.76
2022-08-30T04:24:02.301Z,58.51
2022-08-30T04:26:29.788Z,58.99
2022-08-30T04:28:56.967Z,58.87
2022-08-30T04:31:24.286Z,58.63
2022-08-30T04:33:51.755Z,58.49
2022-08-30T04:36:19.069Z,58.46
2022-08-30T04:38:46.908Z,58.42
2022-08-30T04:41:16.477Z,59.00
2022-08-30T04:43:44.685Z,58.90
2022-08-30T04:46:13.884Z,59.23
2022-08-30T04:48:41.899Z,59.33
2022-08-30T04:51:10.253Z,59.30
2022-08-30T04:53:37.413Z,59.46
2022-08-30T04:56:11.777Z,59.47
2022-08-30T04:58:38.932Z,59.29
2022-08-30T05:01:11.301Z,59.24
2022-08-30T05:03:39.412Z,59.55
2022-08-30T05:06:08.001Z,59.48
2022-08-30T05:08:35.182Z,59.68
2022-08-30T05:11:03.859Z,59.58
2022-08-30T05:13:35.547Z,58.71
2022-08-30T05:16:06.089Z,59.08
2022-08-30T05:18:34.066Z,58.18
2022-08-30T05:21:17.622Z,58.46
2022-08-30T05:23:45.291Z,58.87
2022-08-30T05:26:13.958Z,58.74
2022-08-30T05:28:41.165Z,58.56
2022-08-30T05:31:18.879Z,58.87
2022-08-30T05:33:46.465Z,58.78
2022-08-30T05:36:14.699Z,59.21
2022-08-30T05:38:42.335Z,59.00
2022-08-30T05:41:11.007Z,58.41
2022-08-30T05:43:38.893Z,57.89
2022-08-30T05:46:10.685Z,57.86
2022-08-30T05:48:38.295Z,58.97
2022-08-30T05:51:11.415Z,58.88
2022-08-30T05:53:39.408Z,58.16
2022-08-30T05:56:08.745Z,60.00
2022-08-30T05:58:36.530Z,58.48
2022-08-30T06:01:03.923Z,58.11
2022-08-30T06:03:32.971Z,58.15
2022-08-30T06:06:00.539Z,58.27
2022-08-30T06:08:28.215Z,57.82
2022-08-30T06:10:55.706Z,57.14
2022-08-30T06:13:23.287Z,56.79
2022-08-30T06:15:53.080Z,56.34
2022-08-30T06:18:21.637Z,55.97
2022-08-30T06:20:55.976Z,55.47
2022-08-30T06:23:23.767Z,54.82
2022-08-30T06:25:51.710Z,53.71
2022-08-30T06:28:19.336Z,52.42
2022-08-30T06:30:47.445Z,50.86
2022-08-30T06:33:14.615Z,49.14
2022-08-30T06:35:58.482Z,46.69
2022-08-30T06:38:27.915Z,47.62
2022-08-30T06:40:55.293Z,46.45
2022-08-30T06:43:22.636Z,47.12
2022-08-30T06:45:51.355Z,47.88
2022-08-30T06:48:18.789Z,46.08
2022-08-30T06:50:46.094Z,46.86
2022-08-30T06:53:13.977Z,46.39
2022-08-30T06:55:42.039Z,45.41
2022-08-30T06:58:09.857Z,44.03
2022-08-30T07:00:37.400Z,44.56
2022-08-30T07:03:05.301Z,43.44
2022-08-30T07:05:32.682Z,43.03
2022-08-30T07:08:00.114Z,44.31
2022-08-30T07:10:27.335Z,43.66
2022-08-30T07:12:54.504Z,42.13
2022-08-30T07:15:23.031Z,42.10
2022-08-30T07:18:09.588Z,43.01
2022-08-30T07:20:40.110Z,41.80
2022-08-30T07:23:08.855Z,39.86
2022-08-30T07:25:39.488Z,40.35
2022-08-30T07:28:08.072Z,41.37
2022-08-30T07:30:35.484Z,41.12
2022-08-30T07:33:02.866Z,41.18
2022-08-30T07:35:31.485Z,40.62
2022-08-30T07:37:58.896Z,40.68
2022-08-30T07:40:26.430Z,41.32
2022-08-30T07:42:53.980Z,41.74
2022-08-30T07:45:21.336Z,41.58
2022-08-30T07:47:48.535Z,42.74
2022-08-30T07:50:16.055Z,40.08
2022-08-30T07:52:43.242Z,40.76
2022-08-30T07:55:10.405Z,40.95
2022-08-30T07:57:37.881Z,39.82
2022-08-30T08:00:05.678Z,40.62
2022-08-30T08:02:40.815Z,41.09
2022-08-30T08:05:10.310Z,40.00
2022-08-30T08:07:41.203Z,39.14
2022-08-30T08:10:09.182Z,39.90
2022-08-30T08:12:36.592Z,40.38
2022-08-30T08:15:06.777Z,40.25
2022-08-30T08:17:36.457Z,39.52
2022-08-30T08:20:04.200Z,39.60
2022-08-30T08:22:31.389Z,39.71
2022-08-30T08:24:58.885Z,41.55
2022-08-30T08:27:26.100Z,40.12
2022-08-30T08:29:53.301Z,39.94
2022-08-30T08:32:20.726Z,39.95
2022-08-30T08:34:47.893Z,38.90
2022-08-30T08:37:15.100Z,37.17
2022-08-30T08:39:42.597Z,37.97
2022-08-30T08:42:15.889Z,39.57
2022-08-30T08:44:58.464Z,39.42
2022-08-30T08:47:28.188Z,39.73
2022-08-30T08:49:56.453Z,36.95
2022-08-30T08:52:49.719Z,36.20
2022-08-30T08:55:19.258Z,37.80
2022-08-30T08:57:46.875Z,37.55
2022-08-30T09:00:15.240Z,35.41
2022-08-30T09:02:46.924Z,34.98
2022-08-30T09:05:18.776Z,36.82
2022-08-30T09:07:50.259Z,33.83
2022-08-30T09:10:22.968Z,34.01
2022-08-30T09:13:00.029Z,35.39
2022-08-30T09:15:30.139Z,32.96
2022-08-30T09:18:02.598Z,34.65
2022-08-30T09:20:33.677Z,32.79
2022-08-30T09:23:12.119Z,35.97
2022-08-30T09:25:41.775Z,36.78
2022-08-30T09:28:10.975Z,38.35
2022-08-30T09:30:38.403Z,37.28
2022-08-30T09:33:07.704Z,35.27
2022-08-30T09:35:36.798Z,35.96
2022-08-30T09:38:11.641Z,36.12
2022-08-30T09:40:42.190Z,35.43
2022-08-30T09:43:12.014Z,33.94
2022-08-30T09:45:42.952Z,34.09
2022-08-30T09:48:28.878Z,33.75
2022-08-30T09:51:17.489Z,33.17
2022-08-30T09:54:19.225Z,31.74
2022-08-30T09:56:46.325Z,33.67
2022-08-30T09:59:34.366Z,35.26
2022-08-30T10:02:05.407Z,38.30
2022-08-30T10:04:40.550Z,37.66
2022-08-30T10:07:11.116Z,37.37
2022-08-30T10:09:42.083Z,35.25
2022-08-30T10:12:15.422Z,35.23
2022-08-30T10:14:56.832Z,37.38
2022-08-30T10:17:41.343Z,39.61
2022-08-30T10:20:21.699Z,37.74
2022-08-30T10:23:00.913Z,35.12
2022-08-30T10:25:28.273Z,34.45
2022-08-30T10:27:58.410Z,36.24
2022-08-30T10:30:25.592Z,35.69
2022-08-30T10:33:05.293Z,33.44
2022-08-30T10:35:38.681Z,34.49
2022-08-30T10:38:08.738Z,33.51
2022-08-30T10:40:55.325Z,35.81
2022-08-30T10:43:23.150Z,35.43
2022-08-30T10:45:51.327Z,34.91
2022-08-30T10:48:29.786Z,35.25
2022-08-30T10:50:59.237Z,36.75
2022-08-30T10:53:33.154Z,35.95
2022-08-30T10:56:00.511Z,36.93
2022-08-30T10:58:28.322Z,34.91
2022-08-30T11:01:04.651Z,34.00
2022-08-30T11:03:51.895Z,34.16
2022-08-30T11:06:27.384Z,32.99
2022-08-30T11:09:01.215Z,32.11
2022-08-30T11:11:47.059Z,34.35
2022-08-30T11:14:16.820Z,35.70
2022-08-30T11:16:44.820Z,35.14
2022-08-30T11:19:13.863Z,34.74
2022-08-30T11:21:41.986Z,34.73
2022-08-30T11:24:11.717Z,35.85
2022-08-30T11:26:45.263Z,33.11
2022-08-30T11:29:31.716Z,33.28
2022-08-30T11:32:00.095Z,31.60
2022-08-30T11:34:48.415Z,33.83
2022-08-30T11:37:33.869Z,36.37
2022-08-30T11:40:04.192Z,33.69
2022-08-30T11:42:50.658Z,34.19
2022-08-30T11:45:26.815Z,33.61
2022-08-30T11:47:56.527Z,30.79
2022-08-30T11:50:29.326Z,33.20
2022-08-30T11:52:59.268Z,32.70
2022-08-30T11:55:45.871Z,31.95
2022-08-30T11:58:27.976Z,32.40
2022-08-30T12:01:50.665Z,33.73
2022-08-30T12:04:19.755Z,33.86
2022-08-30T12:06:47.003Z,32.61
2022-08-30T12:09:26.357Z,32.68
2022-08-30T12:12:10.507Z,34.25
2022-08-30T12:14:47.511Z,32.73
2022-08-30T12:17:36.889Z,32.04
2022-08-30T12:20:04.939Z,34.10
2022-08-30T12:22:37.838Z,31.51
2022-08-30T12:25:13.576Z,32.64
2022-08-30T12:27:41.045Z,31.55
2022-08-30T12:30:10.947Z,31.06
2022-08-30T12:32:47.498Z,30.60
2022-08-30T12:35:19.569Z,31.16
2022-08-30T12:37:55.556Z,30.59
2022-08-30T12:40:23.342Z,31.20
2022-08-30T12:42:51.279Z,30.48
2022-08-30T12:45:20.964Z,31.27
2022-08-30T12:47:48.638Z,33.48
2022-08-30T12:50:17.327Z,31.29
2022-08-30T12:52:48.591Z,31.28
2022-08-30T12:55:19.702Z,31.75
2022-08-30T12:57:59.824Z,31.21
2022-08-30T13:00:32.751Z,32.15
2022-08-30T13:03:02.264Z,31.32
2022-08-30T13:05:32.275Z,34.09
2022-08-30T13:08:11.743Z,32.10
2022-08-30T13:10:58.751Z,30.53
2022-08-30T13:13:29.309Z,31.28
2022-08-30T13:15:56.967Z,29.84
2022-08-30T13:18:30.068Z,30.44
2022-08-30T13:21:11.950Z,29.80
2022-08-30T13:23:39.855Z,29.52
2022-08-30T13:26:07.998Z,31.05
2022-08-30T13:28:47.953Z,32.61
2022-08-30T13:31:16.478Z,30.22
2022-08-30T13:33:46.496Z,31.53
2022-08-30T13:36:14.315Z,32.08
2022-08-30T13:38:41.909Z,31.95
2022-08-30T13:41:10.837Z,33.21
2022-08-30T13:46:28.134Z,30.96
2022-08-30T13:48:58.909Z,31.62
2022-08-30T13:51:27.077Z,31.34
2022-08-30T13:53:54.804Z,32.14
2022-08-30T13:56:24.747Z,30.05
2022-08-30T13:58:52.615Z,30.92
2022-08-30T14:01:20.128Z,30.90
2022-08-30T14:06:35.210Z,29.41
2022-08-30T14:09:05.058Z,31.34
2022-08-30T14:11:32.641Z,29.75
2022-08-30T14:14:26.635Z,30.35
2022-08-30T14:16:48.935Z,28.91
2022-08-30T14:19:17.218Z,29.51
2022-08-30T14:21:48.886Z,30.57
2022-08-30T14:24:20.131Z,29.68
2022-08-30T14:26:49.597Z,30.14
2022-08-30T14:29:21.418Z,28.97
2022-08-30T14:31:48.934Z,29.90
2022-08-30T14:34:16.669Z,29.40
2022-08-30T14:36:44.501Z,31.23
2022-08-30T14:39:14.572Z,31.93
2022-08-30T14:41:44.083Z,30.67
2022-08-30T14:44:12.410Z,30.35
2022-08-30T14:46:39.811Z,30.48
2022-08-30T14:49:10.253Z,30.73
2022-08-30T14:51:38.818Z,32.21
2022-08-30T14:54:06.082Z,32.47
2022-08-30T14:56:33.583Z,33.04
2022-08-30T14:59:03.027Z,32.99
2022-08-30T15:01:31.359Z,33.02
2022-08-30T15:03:59.488Z,32.18
2022-08-30T15:06:27.790Z,32.44
2022-08-30T15:08:55.383Z,33.17
2022-08-30T15:11:23.507Z,33.48
2022-08-30T15:13:52.909Z,33.38
2022-08-30T15:16:25.279Z,34.33
2022-08-30T15:18:52.918Z,34.02
2022-08-30T15:21:30.725Z,33.77
2022-08-30T15:23:58.525Z,35.56
2022-08-30T15:26:26.367Z,34.73
2022-08-30T15:28:54.935Z,34.61
2022-08-30T15:31:23.276Z,34.96
2022-08-30T15:33:50.514Z,34.83
2022-08-30T15:36:17.925Z,35.66
2022-08-30T15:38:45.604Z,35.95
2022-08-30T15:41:12.925Z,36.05
2022-08-30T15:43:41.441Z,36.41
2022-08-30T15:46:20.318Z,37.22
2022-08-30T15:48:47.679Z,37.24
2022-08-30T15:51:16.708Z,37.11
2022-08-30T15:53:44.479Z,36.72
2022-08-30T15:56:11.926Z,36.88
2022-08-30T15:58:39.834Z,36.65
2022-08-30T16:01:07.771Z,36.35
2022-08-30T16:03:35.725Z,35.96
2022-08-30T16:06:07.788Z,36.41
2022-08-30T16:08:35.287Z,36.55
2022-08-30T16:11:02.479Z,36.77
2022-08-30T16:13:29.639Z,36.81
2022-08-30T16:15:59.815Z,36.06
2022-08-30T16:18:27.069Z,36.14
2022-08-30T16:21:09.667Z,36.56
2022-08-30T16:23:37.843Z,35.68
2022-08-30T16:26:05.315Z,36.38
2022-08-30T16:28:32.863Z,35.90
2022-08-30T16:31:00.925Z,35.35
2022-08-30T16:33:33.293Z,35.48
2022-08-30T16:36:01.348Z,35.88
2022-08-30T16:38:28.625Z,34.57
2022-08-30T16:40:56.570Z,34.59
2022-08-30T16:43:25.322Z,34.78
2022-08-30T16:45:53.810Z,35.05
2022-08-30T16:48:21.251Z,35.28
2022-08-30T16:50:48.776Z,34.82
2022-08-30T16:53:16.142Z,34.87
2022-08-30T16:55:43.400Z,34.46
2022-08-30T16:58:13.840Z,35.25
2022-08-30T17:00:47.577Z,34.21
2022-08-30T17:03:15.626Z,34.38
2022-08-30T17:05:44.874Z,34.71
2022-08-30T17:08:12.224Z,35.16
2022-08-30T17:10:43.817Z,35.11
2022-08-30T17:13:17.139Z,35.75
2022-08-30T17:15:45.957Z,35.65
2022-08-30T17:18:13.520Z,34.93
2022-08-30T17:20:41.423Z,34.72
2022-08-30T17:23:12.021Z,35.18
2022-08-30T17:25:40.082Z,35.80
2022-08-30T17:28:08.527Z,36.43
2022-08-30T17:30:36.357Z,36.57
2022-08-30T17:33:04.629Z,36.67
2022-08-30T17:35:31.881Z,36.83
2022-08-30T17:37:59.437Z,37.22
2022-08-30T17:40:26.696Z,37.68
2022-08-30T17:42:53.908Z,37.04
2022-08-30T17:45:21.643Z,37.86
2022-08-30T17:47:49.320Z,38.50
2022-08-30T17:50:16.790Z,38.59
2022-08-30T17:52:47.117Z,38.71
2022-08-30T17:55:14.263Z,38.53
2022-08-30T17:57:42.384Z,38.90
2022-08-30T18:00:11.838Z,38.98
2022-08-30T18:02:43.266Z,39.51
2022-08-30T18:05:10.503Z,40.30
2022-08-30T18:07:37.891Z,40.09
2022-08-30T18:10:06.313Z,40.71
2022-08-30T18:15:24.034Z,41.06
2022-08-30T18:17:51.877Z,40.93
2022-08-30T18:20:19.656Z,41.73
2022-08-30T18:22:49.792Z,41.81
2022-08-30T18:25:17.574Z,41.95
2022-08-30T18:27:45.795Z,41.78
2022-08-30T18:30:31.159Z,41.80
2022-08-30T18:33:01.225Z,41.78
2022-08-30T18:35:28.699Z,42.53
2022-08-30T18:37:58.282Z,42.16
2022-08-30T18:40:26.203Z,42.07
2022-08-30T18:42:53.759Z,42.49
2022-08-30T18:45:23.059Z,42.77
2022-08-30T18:47:50.477Z,42.60
2022-08-30T18:50:19.242Z,42.42
2022-08-30T18:52:47.643Z,42.53
2022-08-30T18:55:15.580Z,42.42
2022-08-30T18:57:44.719Z,42.24
2022-08-30T19:00:14.919Z,42.26
2022-08-30T19:02:43.558Z,42.49
2022-08-30T19:05:11.561Z,42.56
2022-08-30T19:07:40.587Z,42.39
2022-08-30T19:10:08.251Z,42.72
2022-08-30T19:12:40.232Z,42.12
2022-08-30T19:15:11.718Z,42.49
2022-08-30T19:17:41.581Z,42.73
2022-08-30T19:20:10.122Z,43.07
2022-08-30T19:22:56.645Z,43.44
2022-08-30T19:25:25.624Z,43.33
2022-08-30T19:27:53.101Z,44.12
2022-08-30T19:30:24.043Z,44.86
2022-08-30T19:32:56.557Z,44.90
2022-08-30T19:35:25.181Z,44.76
2022-08-30T19:37:52.463Z,45.17
2022-08-30T19:40:20.654Z,45.10
2022-08-30T19:42:48.107Z,44.79
2022-08-30T19:45:18.112Z,44.53
2022-08-30T19:47:46.631Z,44.67
2022-08-30T19:50:14.535Z,44.66
2022-08-30T19:52:41.785Z,44.40
2022-08-30T19:55:09.770Z,44.29
2022-08-30T19:57:36.942Z,44.92
2022-08-30T20:00:11.103Z,44.88
2022-08-30T20:02:39.150Z,44.67
2022-08-30T20:05:06.913Z,44.78
2022-08-30T20:07:39.164Z,44.52
2022-08-30T20:10:11.275Z,44.88
2022-08-30T20:12:39.929Z,45.11
2022-08-30T20:15:14.741Z,45.63
2022-08-30T20:18:02.731Z,46.21
2022-08-30T20:20:30.590Z,45.07
2022-08-30T20:22:57.851Z,45.19
2022-08-30T20:24:26.633Z,41.26
2022-08-30T20:25:25.057Z,45.16
2022-08-30T20:27:52.637Z,45.84
2022-08-30T20:30:19.903Z,45.14
2022-08-30T20:32:47.181Z,44.52
2022-08-30T20:35:15.582Z,44.36
2022-08-30T20:37:43.277Z,44.95
2022-08-30T20:40:14.993Z,44.19
2022-08-30T20:42:45.550Z,45.26
2022-08-30T20:45:16.631Z,45.93
2022-08-30T20:47:44.355Z,46.10
2022-08-30T20:50:15.590Z,46.51
2022-08-30T20:52:42.843Z,47.06
2022-08-30T20:55:10.717Z,46.25
2022-08-30T20:57:38.204Z,46.89
2022-08-30T21:00:10.930Z,47.56
2022-08-30T21:02:46.374Z,47.33
2022-08-30T21:05:15.450Z,47.17
2022-08-30T21:07:43.386Z,47.38
2022-08-30T21:10:10.640Z,45.63
2022-08-30T21:12:37.898Z,46.25
2022-08-30T21:15:33.761Z,47.31
2022-08-30T21:17:55.045Z,46.83
2022-08-30T21:20:22.823Z,46.45
2022-08-30T21:22:50.022Z,46.49
2022-08-30T21:25:17.192Z,47.21
2022-08-30T21:27:44.619Z,48.42
2022-08-30T21:30:12.672Z,47.56
2022-08-30T21:32:40.034Z,47.17
2022-08-30T21:35:26.821Z,47.87
2022-08-30T21:37:54.179Z,47.35
2022-08-30T21:40:21.769Z,47.52
2022-08-30T21:42:48.956Z,47.79
2022-08-30T21:45:16.576Z,47.61
2022-08-30T21:47:44.038Z,47.94
2022-08-30T21:50:12.017Z,46.82
2022-08-30T21:52:39.194Z,46.30
2022-08-30T21:55:07.318Z,47.44
2022-08-30T21:57:34.624Z,47.87
2022-08-30T22:00:02.110Z,47.52
2022-08-30T22:02:29.463Z,48.44
2022-08-30T22:04:56.934Z,48.62
2022-08-30T22:07:24.138Z,48.29
2022-08-30T22:09:51.368Z,48.34
2022-08-30T22:12:18.809Z,49.00
2022-08-30T22:14:46.065Z,49.53
2022-08-30T22:17:13.520Z,49.07
2022-08-30T22:19:40.935Z,49.59
2022-08-30T22:22:08.082Z,49.20
2022-08-30T22:24:35.272Z,48.94
2022-08-30T22:27:03.009Z,48.45
2022-08-30T22:29:30.472Z,48.40
2022-08-30T22:31:57.748Z,49.04
2022-08-30T22:34:25.240Z,49.28
2022-08-30T22:36:52.390Z,49.85
2022-08-30T22:39:19.547Z,49.65
2022-08-30T22:41:47.358Z,49.56
2022-08-30T22:44:14.650Z,49.87
2022-08-30T22:46:41.807Z,50.17
2022-08-30T22:49:09.509Z,49.97
2022-08-30T22:51:37.001Z,48.86
2022-08-30T22:54:04.735Z,48.81
2022-08-30T22:56:32.727Z,48.07
2022-08-30T22:58:59.888Z,49.39
2022-08-30T23:01:29.143Z,49.70
2022-08-30T23:03:56.804Z,49.34
2022-08-30T23:06:24.053Z,50.01
2022-08-30T23:08:51.306Z,50.21
2022-08-30T23:11:18.793Z,49.71
2022-08-30T23:13:46.039Z,49.15
2022-08-30T23:16:13.995Z,49.25
2022-08-30T23:18:43.169Z,49.31
2022-08-30T23:21:21.430Z,49.71
2022-08-30T23:24:07.947Z,49.13
2022-08-30T23:26:54.058Z,49.28
2022-08-30T23:29:40.117Z,49.93
2022-08-30T23:32:26.006Z,49.83
2022-08-30T23:35:12.135Z,50.91
2022-08-30T23:37:57.820Z,50.49
2022-08-30T23:40:44.004Z,50.33
2022-08-30T23:43:29.729Z,50.66
2022-08-30T23:46:18.891Z,50.47
2022-08-30T23:49:05.800Z,50.36
2022-08-30T23:51:52.190Z,51.40
2022-08-30T23:54:38.223Z,51.97
2022-08-30T23:57:24.308Z,51.67
